createdAt,value
2018-12-21T00:01:54.462Z,98337.14
2018-12-21T00:04:27.238Z,98331.52
2018-12-21T00:07:01.761Z,98335.44
2018-12-21T00:09:38.712Z,98344.10
2018-12-21T00:12:17.172Z,98340.20
2018-12-21T00:14:51.615Z,98341.94
2018-12-21T00:17:34.489Z,98341.52
2018-12-21T00:20:12.277Z,98348.86
2018-12-21T00:22:44.901Z,98347.56
2018-12-21T00:25:18.431Z,98350.14
2018-12-21T00:27:49.480Z,98351.02
2018-12-21T00:30:22.313Z,98351.44
2018-12-21T00:33:00.114Z,98353.20
2018-12-21T00:35:38.320Z,98353.59
2018-12-21T00:38:16.752Z,98357.94
2018-12-21T00:40:59.559Z,98361.42
2018-12-21T00:43:37.683Z,98367.50
2018-12-21T00:46:15.816Z,98369.64
2018-12-21T00:48:53.912Z,98366.61
2018-12-21T00:51:30.367Z,98367.48
2018-12-21T00:54:01.795Z,98373.52
2018-12-21T00:56:34.648Z,98372.25
2018-12-21T00:59:07.629Z,98375.30
2018-12-21T01:01:45.379Z,98369.70
2018-12-21T01:04:18.714Z,98375.31
2018-12-21T01:06:53.340Z,98376.16
2018-12-21T01:09:26.838Z,98378.31
2018-12-21T01:12:06.051Z,98385.26
2018-12-21T01:14:39.895Z,98390.89
2018-12-21T01:17:13.165Z,98382.69
2018-12-21T01:19:46.287Z,98377.91
2018-12-21T01:22:23.313Z,98375.33
2018-12-21T01:24:59.796Z,98383.12
2018-12-21T01:27:33.180Z,98384.41
2018-12-21T01:30:06.868Z,98378.34
2018-12-21T01:32:39.526Z,98393.94
2018-12-21T01:35:16.771Z,98399.15
2018-12-21T01:37:51.353Z,98408.24
2018-12-21T01:40:25.112Z,98415.17
2018-12-21T01:42:55.585Z,98399.58
2018-12-21T01:45:28.098Z,98399.55
2018-12-21T01:48:01.524Z,98398.70
2018-12-21T01:50:34.677Z,98412.57
2018-12-21T01:53:08.306Z,98398.71
2018-12-21T01:55:46.380Z,98408.69
2018-12-21T01:58:20.705Z,98400.03
2018-12-21T02:00:54.259Z,98397.86
2018-12-21T02:03:32.295Z,98390.48
2018-12-21T02:06:11.813Z,98387.04
2018-12-21T02:08:45.710Z,98392.67
2018-12-21T02:11:23.564Z,98384.86
2018-12-21T02:13:58.466Z,98383.14
2018-12-21T02:16:35.362Z,98384.00
2018-12-21T02:19:08.356Z,98377.09
2018-12-21T02:21:42.115Z,98368.88
2018-12-21T02:24:21.006Z,98376.23
2018-12-21T02:26:54.869Z,98379.67
2018-12-21T02:29:38.120Z,98379.26
2018-12-21T02:32:15.211Z,98375.35
2018-12-21T02:34:52.484Z,98377.50
2018-12-21T02:37:30.828Z,98380.56
2018-12-21T02:40:11.071Z,98381.41
2018-12-21T02:42:45.412Z,98366.71
2018-12-21T02:45:19.505Z,98369.28
2018-12-21T02:47:56.691Z,98368.44
2018-12-21T02:50:29.870Z,98367.56
2018-12-21T02:53:07.668Z,98364.52
2018-12-21T02:55:40.410Z,98365.38
2018-12-21T02:58:13.639Z,98363.66
2018-12-21T03:00:50.592Z,98361.48
2018-12-21T03:03:24.676Z,98357.16
2018-12-21T03:06:01.923Z,98345.91
2018-12-21T03:08:36.714Z,98351.10
2018-12-21T03:11:09.771Z,98351.52
2018-12-21T03:13:43.462Z,98338.09
2018-12-21T03:16:22.667Z,98342.88
2018-12-21T03:18:56.906Z,98343.73
2018-12-21T03:21:30.582Z,98340.72
2018-12-21T03:24:03.755Z,98329.05
2018-12-21T03:26:42.400Z,98327.73
2018-12-21T03:29:17.187Z,98325.98
2018-12-21T03:31:51.647Z,98334.20
2018-12-21T03:34:28.984Z,98329.43
2018-12-21T03:37:04.625Z,98325.55
2018-12-21T03:39:42.917Z,98321.22
2018-12-21T03:42:17.135Z,98322.09
2018-12-21T03:44:52.533Z,98326.84
2018-12-21T03:47:29.667Z,98325.98
2018-12-21T03:50:02.474Z,98319.06
2018-12-21T03:52:42.715Z,98318.20
2018-12-21T03:55:16.455Z,98324.22
2018-12-21T03:57:50.326Z,98325.11
2018-12-21T04:00:26.240Z,98332.87
2018-12-21T04:02:59.680Z,98333.34
2018-12-21T04:05:30.926Z,98331.19
2018-12-21T04:08:04.533Z,98342.41
2018-12-21T04:10:37.572Z,98338.54
2018-12-21T04:13:10.265Z,98340.25
2018-12-21T04:15:43.862Z,98331.17
2018-12-21T04:18:20.453Z,98337.20
2018-12-21T04:20:54.198Z,98332.89
2018-12-21T04:23:27.723Z,98342.41
2018-12-21T04:26:04.250Z,98347.16
2018-12-21T04:28:47.841Z,98341.08
2018-12-21T04:31:22.139Z,98339.35
2018-12-21T04:33:54.981Z,98340.64
2018-12-21T04:41:33.198Z,98336.72
2018-12-21T04:44:10.588Z,98335.42
2018-12-21T04:46:47.155Z,98338.87
2018-12-21T04:49:25.659Z,98334.11
2018-12-21T04:51:59.591Z,98338.85
2018-12-21T04:54:37.774Z,98333.63
2018-12-21T04:57:09.310Z,98340.52
2018-12-21T04:59:47.093Z,98348.31
2018-12-21T05:02:25.268Z,98345.67
2018-12-21T05:05:03.665Z,98355.16
2018-12-21T05:07:36.524Z,98359.06
2018-12-21T05:10:12.860Z,98354.77
2018-12-21T05:12:45.944Z,98362.11
2018-12-21T05:15:18.927Z,98366.45
2018-12-21T05:17:52.488Z,98360.81
2018-12-21T05:20:25.656Z,98364.70
2018-12-21T05:23:04.285Z,98362.09
2018-12-21T05:25:37.699Z,98359.09
2018-12-21T05:28:10.855Z,98346.55
2018-12-21T05:30:45.418Z,98346.53
2018-12-21T05:33:23.282Z,98348.26
2018-12-21T05:35:56.329Z,98343.08
2018-12-21T05:38:33.426Z,98344.80
2018-12-21T05:41:11.547Z,98334.89
2018-12-21T05:43:44.600Z,98332.72
2018-12-21T05:46:27.037Z,98331.83
2018-12-21T05:49:01.437Z,98332.75
2018-12-21T05:51:34.891Z,98338.78
2018-12-21T05:54:10.130Z,98344.00
2018-12-21T05:56:48.053Z,98352.22
2018-12-21T05:59:24.653Z,98348.31
2018-12-21T06:01:57.681Z,98353.50
2018-12-21T06:04:34.818Z,98350.01
2018-12-21T06:07:07.315Z,98349.16
2018-12-21T06:09:41.114Z,98346.57
2018-12-21T06:12:14.966Z,98340.52
2018-12-21T06:14:51.661Z,98340.53
2018-12-21T06:17:29.706Z,98337.08
2018-12-21T06:20:07.384Z,98337.94
2018-12-21T06:22:41.116Z,98338.38
2018-12-21T06:25:19.102Z,98341.83
2018-12-21T06:27:52.621Z,98341.80
2018-12-21T06:30:33.118Z,98342.64
2018-12-21T06:33:16.756Z,98350.43
2018-12-21T06:36:03.732Z,98355.19
2018-12-21T06:38:42.954Z,98356.52
2018-12-21T06:41:27.179Z,98347.41
2018-12-21T06:44:05.565Z,98345.27
2018-12-21T06:46:43.989Z,98349.16
2018-12-21T06:49:30.807Z,98349.64
2018-12-21T06:52:05.493Z,98332.77
2018-12-21T06:54:43.375Z,98330.17
2018-12-21T06:57:22.559Z,98326.71
2018-12-21T07:00:12.974Z,98320.69
2018-12-21T07:02:55.259Z,98326.77
2018-12-21T07:05:34.623Z,98332.37
2018-12-21T07:08:18.819Z,98331.07
2018-12-21T07:11:02.107Z,98334.08
2018-12-21T07:13:41.728Z,98337.08
2018-12-21T07:16:15.983Z,98338.80
2018-12-21T07:18:53.093Z,98330.16
2018-12-21T07:21:25.951Z,98337.48
2018-12-21T07:23:58.989Z,98333.60
2018-12-21T07:26:32.178Z,98334.92
2018-12-21T07:29:09.499Z,98344.88
2018-12-21T07:31:42.414Z,98333.19
2018-12-21T07:34:18.541Z,98334.95
2018-12-21T07:36:57.927Z,98330.22
2018-12-21T07:39:34.980Z,98327.64
2018-12-21T07:42:07.765Z,98318.11
2018-12-21T07:44:42.143Z,98324.18
2018-12-21T07:47:19.126Z,98324.64
2018-12-21T07:49:53.181Z,98329.42
2018-12-21T07:52:30.945Z,98325.54
2018-12-21T07:55:04.779Z,98324.23
2018-12-21T07:57:35.179Z,98319.49
2018-12-21T08:00:11.205Z,98323.41
2018-12-21T08:02:44.653Z,98319.06
2018-12-21T08:05:18.336Z,98318.64
2018-12-21T08:07:50.672Z,98321.25
2018-12-21T08:10:24.633Z,98314.33
2018-12-21T08:12:56.937Z,98305.69
2018-12-21T08:15:29.498Z,98310.44
2018-12-21T08:18:03.059Z,98309.99
2018-12-21T08:20:35.866Z,98309.13
2018-12-21T08:23:09.180Z,98305.69
2018-12-21T08:25:46.838Z,98300.47
2018-12-21T08:28:17.950Z,98307.78
2018-12-21T08:30:55.328Z,98292.18
2018-12-21T08:33:31.867Z,98293.00
2018-12-21T08:36:04.146Z,98290.81
2018-12-21T08:38:39.172Z,98287.66
2018-12-21T08:41:12.859Z,98284.19
2018-12-21T08:43:45.531Z,98274.61
2018-12-21T08:46:19.512Z,98283.20
2018-12-21T08:48:57.073Z,98269.67
2018-12-21T08:51:30.753Z,98266.63
2018-12-21T08:54:07.376Z,98268.75
2018-12-21T08:56:44.590Z,98262.03
2018-12-21T08:59:20.747Z,98262.96
2018-12-21T09:01:57.006Z,98265.55
2018-12-21T09:04:32.307Z,98262.39
2018-12-21T09:07:05.248Z,98250.67
2018-12-21T09:09:36.578Z,98249.86
2018-12-21T09:12:13.128Z,98250.84
2018-12-21T09:14:45.604Z,98249.55
2018-12-21T09:17:17.929Z,98258.88
2018-12-21T09:19:50.975Z,98258.61
2018-12-21T09:22:23.860Z,98266.53
2018-12-21T09:24:56.892Z,98257.31
2018-12-21T09:27:27.660Z,98244.52
2018-12-21T09:30:08.543Z,98250.61
2018-12-21T09:32:39.254Z,98237.89
2018-12-21T09:35:16.638Z,98233.56
2018-12-21T09:37:47.219Z,98233.31
2018-12-21T09:40:17.631Z,98232.51
2018-12-21T09:42:49.787Z,98228.17
2018-12-21T09:45:22.253Z,98223.45
2018-12-21T09:47:56.041Z,98224.58
2018-12-21T09:50:32.387Z,98213.29
2018-12-21T09:53:05.760Z,98211.67
2018-12-21T09:55:39.320Z,98204.05
2018-12-21T09:58:11.621Z,98212.56
2018-12-21T10:00:44.944Z,98204.59
2018-12-21T10:03:17.899Z,98204.30
2018-12-21T10:05:48.962Z,98185.77
2018-12-21T10:08:21.967Z,98189.98
2018-12-21T10:10:59.035Z,98188.68
2018-12-21T10:13:32.212Z,98182.48
2018-12-21T10:16:08.442Z,98174.08
2018-12-21T10:18:39.559Z,98170.42
2018-12-21T10:21:12.310Z,98164.20
2018-12-21T10:23:45.141Z,98151.54
2018-12-21T10:26:19.456Z,98149.73
2018-12-21T10:28:52.504Z,98148.70
2018-12-21T10:31:28.714Z,98151.98
2018-12-21T10:34:01.555Z,98143.08
2018-12-21T10:36:38.762Z,98142.50
2018-12-21T10:39:12.351Z,98131.12
2018-12-21T10:41:44.949Z,98124.03
2018-12-21T10:44:20.250Z,98121.42
2018-12-21T10:46:51.737Z,98110.87
2018-12-21T10:49:31.865Z,98098.19
2018-12-21T10:52:03.581Z,98089.91
2018-12-21T10:54:40.713Z,98074.38
2018-12-21T10:57:12.865Z,98073.37
2018-12-21T10:59:43.994Z,98062.17
2018-12-21T11:02:20.370Z,98054.14
2018-12-21T11:04:52.535Z,98044.10
2018-12-21T11:07:29.570Z,98047.45
2018-12-21T11:10:01.816Z,98040.56
2018-12-21T11:12:34.132Z,98039.12
2018-12-21T11:15:10.412Z,98036.48
2018-12-21T11:17:44.464Z,98029.97
2018-12-21T11:20:16.626Z,98031.09
2018-12-21T11:22:49.631Z,98022.80
2018-12-21T11:25:22.117Z,98015.40
2018-12-21T11:27:55.259Z,97997.58
2018-12-21T11:30:32.278Z,97994.48
2018-12-21T11:33:04.725Z,97984.46
2018-12-21T11:35:37.940Z,97971.05
2018-12-21T11:38:11.750Z,97979.97
2018-12-21T11:40:44.380Z,97978.64
2018-12-21T11:43:17.328Z,97979.83
2018-12-21T11:45:54.525Z,97984.15
2018-12-21T11:48:27.393Z,97978.63
2018-12-21T11:50:59.725Z,97968.63
2018-12-21T11:53:36.671Z,97962.22
2018-12-21T11:56:12.985Z,97962.64
2018-12-21T11:58:46.028Z,97952.66
2018-12-21T12:01:18.083Z,97958.30
2018-12-21T12:03:51.410Z,97948.75
2018-12-21T12:06:29.557Z,97955.16
2018-12-21T12:09:06.342Z,97947.87
2018-12-21T12:11:38.512Z,97935.28
2018-12-21T12:14:16.310Z,97933.58
2018-12-21T12:16:50.435Z,97923.94
2018-12-21T12:19:27.349Z,97931.47
2018-12-21T12:22:00.289Z,97922.23
2018-12-21T12:24:32.791Z,97915.31
2018-12-21T12:27:05.910Z,97921.78
2018-12-21T12:29:39.573Z,97924.12
2018-12-21T12:32:16.337Z,97921.52
2018-12-21T12:34:49.427Z,97917.12
2018-12-21T12:37:22.487Z,97910.68
2018-12-21T12:39:55.541Z,97905.59
2018-12-21T12:42:28.385Z,97889.61
2018-12-21T12:45:08.012Z,97885.52
2018-12-21T12:47:42.875Z,97878.99
2018-12-21T12:50:20.034Z,97887.63
2018-12-21T12:52:56.377Z,97895.09
2018-12-21T12:55:34.093Z,97886.86
2018-12-21T12:58:07.082Z,97890.73
2018-12-21T13:00:43.758Z,97881.72
2018-12-21T13:13:20.138Z,97856.23
2018-12-21T13:15:53.701Z,97850.03
2018-12-21T13:18:26.856Z,97849.93
2018-12-21T13:20:59.646Z,97845.66
2018-12-21T13:23:32.741Z,97840.48
2018-12-21T13:26:05.286Z,97844.77
2018-12-21T13:28:38.156Z,97839.89
2018-12-21T13:31:12.146Z,97832.05
2018-12-21T13:33:44.554Z,97818.52
2018-12-21T13:36:26.821Z,97810.19
2018-12-21T13:39:05.980Z,97814.09
2018-12-21T13:41:42.415Z,97808.80
2018-12-21T13:44:15.333Z,97797.92
2018-12-21T13:46:48.552Z,97809.59
2018-12-21T13:49:21.194Z,97805.27
2018-12-21T13:51:51.240Z,97804.97
2018-12-21T13:54:24.319Z,97802.19
2018-12-21T13:56:57.333Z,97797.33
2018-12-21T13:59:30.501Z,97793.94
2018-12-21T14:02:02.253Z,97773.45
2018-12-21T14:04:34.872Z,97781.77
2018-12-21T14:07:07.782Z,97787.16
2018-12-21T14:09:44.886Z,97798.80
2018-12-21T14:12:17.291Z,97806.75
2018-12-21T14:14:50.332Z,97791.63
2018-12-21T14:17:26.629Z,97800.65
2018-12-21T14:19:59.974Z,97791.18
2018-12-21T14:22:33.103Z,97791.02
2018-12-21T14:25:08.241Z,97796.53
2018-12-21T14:27:44.516Z,97777.77
2018-12-21T14:30:17.709Z,97773.96
2018-12-21T14:32:52.509Z,97769.33
2018-12-21T14:35:25.630Z,97760.64
2018-12-21T14:37:59.395Z,97754.41
2018-12-21T14:40:37.343Z,97742.06
2018-12-21T14:43:10.484Z,97745.37
2018-12-21T14:45:43.769Z,97749.84
2018-12-21T14:48:20.145Z,97739.55
2018-12-21T14:50:52.322Z,97739.55
2018-12-21T14:53:24.100Z,97741.37
2018-12-21T14:55:54.719Z,97745.12
2018-12-21T14:58:27.883Z,97744.95
2018-12-21T15:01:02.824Z,97726.83
2018-12-21T15:03:39.208Z,97733.45
2018-12-21T15:06:16.681Z,97731.48
2018-12-21T15:08:49.495Z,97739.19
2018-12-21T15:11:21.885Z,97719.96
2018-12-21T15:13:59.307Z,97716.08
2018-12-21T15:16:32.183Z,97723.99
2018-12-21T15:19:04.999Z,97722.63
2018-12-21T15:21:36.438Z,97712.88
2018-12-21T15:24:11.991Z,97717.84
2018-12-21T15:26:43.726Z,97709.09
2018-12-21T15:29:15.627Z,97712.14
2018-12-21T15:31:49.472Z,97697.20
2018-12-21T15:34:26.069Z,97686.58
2018-12-21T15:36:59.795Z,97699.08
2018-12-21T15:39:32.859Z,97673.16
2018-12-21T15:42:06.378Z,97667.05
2018-12-21T15:44:39.489Z,97665.09
2018-12-21T15:47:34.811Z,97662.37
2018-12-21T15:50:36.778Z,97662.55
2018-12-21T15:53:29.090Z,97678.20
2018-12-21T15:56:17.143Z,97675.48
2018-12-21T15:59:15.266Z,97667.33
2018-12-21T16:01:57.811Z,97671.27
2018-12-21T16:04:39.592Z,97669.09
2018-12-21T16:07:38.337Z,97669.70
2018-12-21T16:10:28.601Z,97663.31
2018-12-21T16:13:18.419Z,97665.31
2018-12-21T16:15:51.668Z,97661.44
2018-12-21T16:18:27.747Z,97666.99
2018-12-21T16:21:02.471Z,97659.22
2018-12-21T16:31:19.563Z,97661.48
2018-12-21T16:33:52.679Z,97663.04
2018-12-21T16:36:30.137Z,97655.47
2018-12-21T16:39:08.577Z,97654.01
2018-12-21T16:41:41.616Z,97654.45
2018-12-21T16:44:15.085Z,97645.24
2018-12-21T16:46:48.712Z,97650.36
2018-12-21T16:49:21.852Z,97641.01
2018-12-21T16:51:55.730Z,97641.08
2018-12-21T16:54:29.786Z,97635.36
2018-12-21T16:57:03.162Z,97622.74
2018-12-21T16:59:36.605Z,97612.84
2018-12-21T17:02:13.699Z,97621.56
2018-12-21T17:04:47.968Z,97608.98
2018-12-21T17:07:22.007Z,97617.27
2018-12-21T17:09:59.094Z,97623.29
2018-12-21T17:12:36.570Z,97606.72
2018-12-21T17:15:10.475Z,97599.50
2018-12-21T17:17:43.846Z,97605.97
2018-12-21T17:20:23.591Z,97593.01
2018-12-21T17:22:57.682Z,97594.13
2018-12-21T17:25:35.968Z,97601.93
2018-12-21T17:28:10.409Z,97601.80
2018-12-21T17:30:48.600Z,97601.07
2018-12-21T17:33:23.452Z,97595.81
2018-12-21T17:35:57.061Z,97614.95
2018-12-21T17:38:30.575Z,97612.16
2018-12-21T17:41:02.898Z,97610.09
2018-12-21T17:43:38.344Z,97593.56
2018-12-21T17:46:15.261Z,97603.20
2018-12-21T17:48:46.947Z,97609.89
2018-12-21T17:51:19.558Z,97612.02
2018-12-21T17:53:52.746Z,97613.84
2018-12-21T17:56:29.841Z,97618.58
2018-12-21T17:59:01.790Z,97617.91
2018-12-21T18:01:37.658Z,97617.02
2018-12-21T18:04:22.679Z,97625.29
2018-12-21T18:07:03.782Z,97622.71
2018-12-21T18:09:38.165Z,97623.16
2018-12-21T18:12:10.867Z,97616.55
2018-12-21T18:14:44.026Z,97619.58
2018-12-21T18:17:18.321Z,97610.00
2018-12-21T18:19:51.346Z,97605.80
2018-12-21T18:22:26.049Z,97600.69
2018-12-21T18:25:03.907Z,97606.50
2018-12-21T18:27:36.407Z,97613.64
2018-12-21T18:30:19.866Z,97595.77
2018-12-21T18:32:56.761Z,97590.17
2018-12-21T18:35:33.550Z,97593.42
2018-12-21T18:38:18.584Z,97600.69
2018-12-21T18:40:56.383Z,97606.15
2018-12-21T18:43:29.359Z,97617.80
2018-12-21T18:46:03.218Z,97624.48
2018-12-21T18:48:36.189Z,97629.11
2018-12-21T18:51:07.121Z,97635.19
2018-12-21T18:53:40.316Z,97619.78
2018-12-21T18:56:22.957Z,97609.70
2018-12-21T18:58:56.109Z,97595.09
2018-12-21T19:01:27.542Z,97579.05
2018-12-21T19:04:00.585Z,97591.27
2018-12-21T19:06:33.219Z,97584.51
2018-12-21T19:09:11.418Z,97584.59
2018-12-21T19:11:49.375Z,97592.33
2018-12-21T19:14:26.458Z,97566.88
2018-12-21T19:16:58.935Z,97545.15
2018-12-21T19:19:32.085Z,97543.69
2018-12-21T19:22:05.361Z,97523.22
2018-12-21T19:24:38.638Z,97520.48
2018-12-21T19:27:11.025Z,97507.41
2018-12-21T19:29:44.292Z,97514.67
2018-12-21T19:32:17.471Z,97491.83
2018-12-21T19:34:54.668Z,97498.35
2018-12-21T19:37:27.790Z,97493.45
2018-12-21T19:40:00.936Z,97508.63
2018-12-21T19:42:34.378Z,97503.78
2018-12-21T19:45:11.095Z,97511.10
2018-12-21T19:47:43.624Z,97523.08
2018-12-21T19:50:16.652Z,97530.55
2018-12-21T19:52:49.741Z,97533.81
2018-12-21T19:57:13.280Z,97515.34
2018-12-21T19:59:46.234Z,97533.77
2018-12-21T20:02:18.543Z,97522.19
2018-12-21T20:04:54.969Z,97521.91
2018-12-21T20:07:31.987Z,97519.20
2018-12-21T20:10:05.944Z,97512.63
2018-12-21T20:12:38.867Z,97503.36
2018-12-21T20:15:11.953Z,97498.73
2018-12-21T20:17:44.900Z,97501.64
2018-12-21T20:20:21.174Z,97502.81
2018-12-21T20:22:54.420Z,97504.31
2018-12-21T20:25:25.268Z,97498.55
2018-12-21T20:28:02.078Z,97489.04
2018-12-21T20:30:32.825Z,97492.17
2018-12-21T20:33:05.844Z,97497.72
2018-12-21T20:35:38.961Z,97504.09
2018-12-21T20:38:21.367Z,97503.64
2018-12-21T20:40:53.616Z,97513.02
2018-12-21T20:43:26.318Z,97517.10
2018-12-21T20:46:02.669Z,97520.62
2018-12-21T20:48:40.236Z,97523.84
2018-12-21T20:51:16.956Z,97521.12
2018-12-21T20:53:53.944Z,97515.53
2018-12-21T20:56:30.449Z,97527.13
2018-12-21T20:59:15.788Z,97525.89
2018-12-21T21:01:53.160Z,97507.28
2018-12-21T21:04:26.154Z,97522.07
2018-12-21T21:07:02.878Z,97530.58
2018-12-21T21:09:32.950Z,97520.59
2018-12-21T21:12:06.079Z,97516.74
2018-12-21T21:14:44.098Z,97519.50
2018-12-21T21:17:21.495Z,97517.42
2018-12-21T21:19:58.398Z,97535.07
2018-12-21T21:22:35.234Z,97544.25
2018-12-21T21:25:11.600Z,97537.63
2018-12-21T21:27:48.456Z,97526.92
2018-12-21T21:30:21.012Z,97522.27
2018-12-21T21:32:54.780Z,97536.09
2018-12-21T21:35:27.695Z,97534.05
2018-12-21T21:38:00.271Z,97519.30
2018-12-21T21:40:34.392Z,97525.42
2018-12-21T21:43:11.545Z,97521.22
2018-12-21T21:45:48.136Z,97512.52
2018-12-21T21:48:25.205Z,97520.23
2018-12-21T21:51:01.700Z,97527.45
2018-12-21T21:53:35.142Z,97534.32
2018-12-21T21:56:07.957Z,97546.05
2018-12-21T21:58:42.102Z,97542.82
2018-12-21T22:01:13.255Z,97548.84
2018-12-21T22:03:46.245Z,97548.84
2018-12-21T22:06:24.034Z,97548.42
2018-12-21T22:08:54.512Z,97539.48
2018-12-21T22:11:27.916Z,97550.22
2018-12-21T22:14:00.768Z,97562.05
2018-12-21T22:16:33.376Z,97552.43
2018-12-21T22:19:09.525Z,97540.86
2018-12-21T22:21:42.694Z,97537.82
2018-12-21T22:24:12.847Z,97522.04
2018-12-21T22:26:45.240Z,97514.31
2018-12-21T22:29:22.567Z,97518.39
2018-12-21T22:31:56.182Z,97515.03
2018-12-21T22:34:28.647Z,97523.59
2018-12-21T22:37:01.219Z,97516.25
2018-12-21T22:39:34.754Z,97517.63
2018-12-21T22:42:11.254Z,97516.63
2018-12-21T22:44:48.431Z,97540.98
2018-12-21T22:47:21.407Z,97549.08
2018-12-21T22:49:54.295Z,97549.10
2018-12-21T22:52:27.359Z,97563.81
2018-12-21T22:55:01.238Z,97564.67
2018-12-21T22:57:40.723Z,97567.67
2018-12-21T23:00:21.581Z,97554.70
2018-12-21T23:02:57.864Z,97572.03
2018-12-21T23:05:31.266Z,97558.46
2018-12-21T23:08:04.998Z,97554.54
2018-12-21T23:10:37.455Z,97554.16
2018-12-21T23:13:11.496Z,97534.20
2018-12-21T23:15:48.878Z,97535.65
2018-12-21T23:18:21.402Z,97529.38
2018-12-21T23:20:58.777Z,97522.00
2018-12-21T23:23:31.621Z,97519.44
2018-12-21T23:26:04.711Z,97530.28
2018-12-21T23:28:36.981Z,97531.59
2018-12-21T23:31:13.495Z,97531.94
2018-12-21T23:33:46.461Z,97537.19
2018-12-21T23:36:20.239Z,97539.25
2018-12-21T23:38:53.017Z,97528.38
2018-12-21T23:41:27.023Z,97527.05
2018-12-21T23:44:00.321Z,97530.56
2018-12-21T23:46:37.300Z,97550.62
2018-12-21T23:49:14.502Z,97561.39
2018-12-21T23:51:51.160Z,97557.16
2018-12-21T23:54:24.345Z,97545.11
2018-12-21T23:57:03.519Z,97533.45
2018-12-21T23:59:36.805Z,97518.05
